الصفحة الرئيسية
METAR-TAF:

METAR-TAF

مطار :

ييكاتيرينبرغ, روسيا

دائرة عرض: 56-50N, خط طول: 060-38E, ارتفاع: 237 متر

مراقبة الطقس الحالي

تاريخ ووقت الإصدار 38 دقيقة قبل الساعة 22:30UTC
ريح 12 عقدة من الغرب
درجة الحرارة 4°درجة مئوية
الرطوبة 81%
ضغط 1008 hPa
الرؤية 10 كم أو أكثر
غيوم متفرقة على ارتفاع 3300 قدم

METAR: USSS 202230Z 28006MPS 9999 SCT033 04/01 Q1008 R26R/290336 NOSIG RMK QFE735/0980

زمن: 04:08 (23:08 UTC)

توقعات

تاريخ ووقت الإصدار 3ساعات و 11 دقيقة قبل الساعة 19:57UTC
التوقعات صالحة من20 الساعة 21 UTC إلى 21 الساعة 21 UTC
ريح 12 عقدة من الغرب/الشمال الغربي تتزايد حتى 25 عقدة
الرؤية 10 كم أو أكثر
غيوم مفككة على ارتفاع 1500 قدم, مزنة ركامية.

TAF: USSS 201957Z 2021/2121 29006G13MPS 9999 BKN015CB

أرصاد الطقس والتوقعات من أكثر من 4000 مطار (تقارير الطقس للمطار METAR والتنبؤ بالطقس بالمطارTAF).

المحطات المتاحة هي النقط الصفراء والحمراء على الخريطة.

حرك المؤشر فوق النقطة لمعرفة اسم المحطة.

ثم انقر لمعرفة أرصاد وتوقعات الطقس.

لتغيير الخارطة: اضغط على الأزرار الخضراء مع رمز الصليب الأسود للتكبير. على الزر الأخضر مع شرطة للتصغير، أو على الأسهم الخضراء للخرائط المجاورة.


METAR-TAF: